sensor_id;sensor_type;location;lat;lon;timestamp;P1;durP1;ratioP1;P2;durP2;ratioP2
15712;SDS011;7957;51.608;6.916;2023-05-02T00:01:16;21.87;;;19.97;;
15712;SDS011;7957;51.608;6.916;2023-05-02T00:03:43;22.30;;;20.30;;
15712;SDS011;7957;51.608;6.916;2023-05-02T00:06:10;22.20;;;20.20;;
15712;SDS011;7957;51.608;6.916;2023-05-02T00:08:37;23.70;;;21.50;;
15712;SDS011;7957;51.608;6.916;2023-05-02T00:11:04;24.17;;;21.97;;
15712;SDS011;7957;51.608;6.916;2023-05-02T00:13:31;25.57;;;23.00;;
15712;SDS011;7957;51.608;6.916;2023-05-02T00:16:00;25.23;;;22.83;;
15712;SDS011;7957;51.608;6.916;2023-05-02T00:18:27;26.70;;;24.10;;
15712;SDS011;7957;51.608;6.916;2023-05-02T00:20:54;26.53;;;24.07;;
15712;SDS011;7957;51.608;6.916;2023-05-02T00:23:21;26.80;;;24.23;;
15712;SDS011;7957;51.608;6.916;2023-05-02T00:25:48;26.67;;;24.17;;
15712;SDS011;7957;51.608;6.916;2023-05-02T00:28:15;28.20;;;25.37;;
15712;SDS011;7957;51.608;6.916;2023-05-02T00:30:42;29.73;;;26.83;;
15712;SDS011;7957;51.608;6.916;2023-05-02T00:33:11;29.70;;;26.80;;
15712;SDS011;7957;51.608;6.916;2023-05-02T00:35:38;29.97;;;27.20;;
15712;SDS011;7957;51.608;6.916;2023-05-02T00:38:06;31.50;;;28.27;;
15712;SDS011;7957;51.608;6.916;2023-05-02T00:40:41;29.00;;;26.30;;
15712;SDS011;7957;51.608;6.916;2023-05-02T00:43:09;29.20;;;26.47;;
15712;SDS011;7957;51.608;6.916;2023-05-02T00:45:36;29.80;;;27.00;;
15712;SDS011;7957;51.608;6.916;2023-05-02T00:48:05;31.37;;;28.27;;
15712;SDS011;7957;51.608;6.916;2023-05-02T00:50:34;30.30;;;27.30;;
15712;SDS011;7957;51.608;6.916;2023-05-02T00:53:02;30.57;;;27.57;;
15712;SDS011;7957;51.608;6.916;2023-05-02T00:55:30;31.77;;;28.67;;
15712;SDS011;7957;51.608;6.916;2023-05-02T00:57:58;31.93;;;28.83;;
15712;SDS011;7957;51.608;6.916;2023-05-02T01:00:26;31.73;;;28.63;;
15712;SDS011;7957;51.608;6.916;2023-05-02T01:03:01;30.97;;;28.00;;
15712;SDS011;7957;51.608;6.916;2023-05-02T01:05:38;32.00;;;28.87;;
15712;SDS011;7957;51.608;6.916;2023-05-02T01:08:16;31.43;;;28.43;;
15712;SDS011;7957;51.608;6.916;2023-05-02T01:10:54;31.33;;;28.37;;
15712;SDS011;7957;51.608;6.916;2023-05-02T01:13:31;32.00;;;28.80;;
15712;SDS011;7957;51.608;6.916;2023-05-02T01:15:58;31.77;;;28.77;;
15712;SDS011;7957;51.608;6.916;2023-05-02T01:18:29;33.10;;;29.80;;
15712;SDS011;7957;51.608;6.916;2023-05-02T01:21:01;31.80;;;28.53;;
15712;SDS011;7957;51.608;6.916;2023-05-02T01:23:33;30.70;;;27.63;;
15712;SDS011;7957;51.608;6.916;2023-05-02T01:26:07;30.50;;;27.50;;
15712;SDS011;7957;51.608;6.916;2023-05-02T01:28:51;30.60;;;27.60;;
15712;SDS011;7957;51.608;6.916;2023-05-02T01:31:27;30.57;;;27.57;;
15712;SDS011;7957;51.608;6.916;2023-05-02T01:33:59;31.60;;;28.23;;
15712;SDS011;7957;51.608;6.916;2023-05-02T01:36:27;29.20;;;26.13;;
15712;SDS011;7957;51.608;6.916;2023-05-02T01:38:56;29.10;;;26.30;;
15712;SDS011;7957;51.608;6.916;2023-05-02T01:41:24;28.60;;;25.80;;
15712;SDS011;7957;51.608;6.916;2023-05-02T01:43:54;28.40;;;25.37;;
15712;SDS011;7957;51.608;6.916;2023-05-02T01:46:22;28.27;;;25.37;;
15712;SDS011;7957;51.608;6.916;2023-05-02T01:48:51;27.83;;;25.13;;
15712;SDS011;7957;51.608;6.916;2023-05-02T01:51:22;26.97;;;24.37;;
15712;SDS011;7957;51.608;6.916;2023-05-02T01:53:56;27.77;;;24.87;;
15712;SDS011;7957;51.608;6.916;2023-05-02T01:56:26;27.93;;;24.93;;
15712;SDS011;7957;51.608;6.916;2023-05-02T01:58:58;26.87;;;24.27;;
15712;SDS011;7957;51.608;6.916;2023-05-02T02:01:27;26.00;;;23.47;;
15712;SDS011;7957;51.608;6.916;2023-05-02T02:03:55;26.40;;;23.80;;
15712;SDS011;7957;51.608;6.916;2023-05-02T02:06:24;25.87;;;23.17;;
15712;SDS011;7957;51.608;6.916;2023-05-02T02:08:51;24.53;;;22.03;;
15712;SDS011;7957;51.608;6.916;2023-05-02T02:11:20;25.50;;;22.73;;
15712;SDS011;7957;51.608;6.916;2023-05-02T02:13:51;25.30;;;22.70;;
15712;SDS011;7957;51.608;6.916;2023-05-02T02:16:27;24.50;;;22.00;;
15712;SDS011;7957;51.608;6.916;2023-05-02T02:18:58;24.83;;;21.23;;
15712;SDS011;7957;51.608;6.916;2023-05-02T02:21:32;24.03;;;21.43;;
15712;SDS011;7957;51.608;6.916;2023-05-02T02:24:03;22.97;;;20.57;;
15712;SDS011;7957;51.608;6.916;2023-05-02T02:26:31;22.70;;;20.37;;
15712;SDS011;7957;51.608;6.916;2023-05-02T02:28:59;21.93;;;19.73;;
15712;SDS011;7957;51.608;6.916;2023-05-02T02:31:30;21.70;;;19.50;;
15712;SDS011;7957;51.608;6.916;2023-05-02T02:33:57;21.87;;;19.67;;
15712;SDS011;7957;51.608;6.916;2023-05-02T02:36:27;23.13;;;20.63;;
15712;SDS011;7957;51.608;6.916;2023-05-02T02:39:09;22.13;;;19.30;;
15712;SDS011;7957;51.608;6.916;2023-05-02T02:41:46;21.57;;;19.37;;
15712;SDS011;7957;51.608;6.916;2023-05-02T02:44:25;20.83;;;18.63;;
15712;SDS011;7957;51.608;6.916;2023-05-02T02:47:03;20.63;;;18.53;;
15712;SDS011;7957;51.608;6.916;2023-05-02T02:49:37;20.10;;;18.00;;
15712;SDS011;7957;51.608;6.916;2023-05-02T02:52:13;19.10;;;17.10;;
15712;SDS011;7957;51.608;6.916;2023-05-02T02:54:49;19.33;;;17.23;;
15712;SDS011;7957;51.608;6.916;2023-05-02T02:57:23;18.13;;;16.23;;
15712;SDS011;7957;51.608;6.916;2023-05-02T02:59:57;19.07;;;17.07;;
15712;SDS011;7957;51.608;6.916;2023-05-02T03:02:30;20.63;;;17.30;;
15712;SDS011;7957;51.608;6.916;2023-05-02T03:04:58;18.60;;;15.57;;
15712;SDS011;7957;51.608;6.916;2023-05-02T03:07:27;16.77;;;15.03;;
15712;SDS011;7957;51.608;6.916;2023-05-02T03:09:55;19.10;;;15.77;;
15712;SDS011;7957;51.608;6.916;2023-05-02T03:12:22;17.40;;;15.40;;
15712;SDS011;7957;51.608;6.916;2023-05-02T03:14:50;16.33;;;14.67;;
15712;SDS011;7957;51.608;6.916;2023-05-02T03:17:17;18.27;;;15.17;;
15712;SDS011;7957;51.608;6.916;2023-05-02T03:19:45;16.13;;;14.50;;
15712;SDS011;7957;51.608;6.916;2023-05-02T03:22:12;16.07;;;13.97;;
15712;SDS011;7957;51.608;6.916;2023-05-02T03:24:39;15.63;;;14.00;;
15712;SDS011;7957;51.608;6.916;2023-05-02T03:27:06;17.87;;;14.63;;
15712;SDS011;7957;51.608;6.916;2023-05-02T03:29:32;15.87;;;14.20;;
15712;SDS011;7957;51.608;6.916;2023-05-02T03:31:59;16.23;;;14.47;;
15712;SDS011;7957;51.608;6.916;2023-05-02T03:34:26;17.87;;;14.80;;
15712;SDS011;7957;51.608;6.916;2023-05-02T03:36:54;18.23;;;15.00;;
15712;SDS011;7957;51.608;6.916;2023-05-02T03:39:21;16.80;;;14.97;;
15712;SDS011;7957;51.608;6.916;2023-05-02T03:41:48;17.70;;;14.77;;
15712;SDS011;7957;51.608;6.916;2023-05-02T03:44:15;19.57;;;15.03;;
15712;SDS011;7957;51.608;6.916;2023-05-02T03:46:42;16.40;;;14.57;;
15712;SDS011;7957;51.608;6.916;2023-05-02T03:49:09;15.70;;;14.10;;
15712;SDS011;7957;51.608;6.916;2023-05-02T03:51:36;17.83;;;14.90;;
15712;SDS011;7957;51.608;6.916;2023-05-02T03:54:04;17.33;;;15.53;;
15712;SDS011;7957;51.608;6.916;2023-05-02T03:56:31;17.73;;;14.33;;
15712;SDS011;7957;51.608;6.916;2023-05-02T03:58:58;19.67;;;15.07;;
15712;SDS011;7957;51.608;6.916;2023-05-02T04:01:26;17.17;;;14.73;;
15712;SDS011;7957;51.608;6.916;2023-05-02T04:03:53;16.13;;;14.20;;
15712;SDS011;7957;51.608;6.916;2023-05-02T04:06:20;16.77;;;14.23;;
15712;SDS011;7957;51.608;6.916;2023-05-02T04:08:47;17.57;;;15.23;;
15712;SDS011;7957;51.608;6.916;2023-05-02T04:11:15;18.33;;;14.43;;
15712;SDS011;7957;51.608;6.916;2023-05-02T04:13:42;16.03;;;14.20;;
15712;SDS011;7957;51.608;6.916;2023-05-02T04:16:09;17.67;;;14.97;;
15712;SDS011;7957;51.608;6.916;2023-05-02T04:18:36;16.03;;;14.33;;
15712;SDS011;7957;51.608;6.916;2023-05-02T04:21:03;17.67;;;14.47;;
15712;SDS011;7957;51.608;6.916;2023-05-02T04:23:32;16.67;;;14.33;;
15712;SDS011;7957;51.608;6.916;2023-05-02T04:25:59;16.97;;;14.50;;
15712;SDS011;7957;51.608;6.916;2023-05-02T04:28:27;16.80;;;15.00;;
15712;SDS011;7957;51.608;6.916;2023-05-02T04:30:55;16.57;;;14.43;;
15712;SDS011;7957;51.608;6.916;2023-05-02T04:33:22;17.90;;;15.40;;
15712;SDS011;7957;51.608;6.916;2023-05-02T04:35:49;15.83;;;14.13;;
15712;SDS011;7957;51.608;6.916;2023-05-02T04:38:17;16.40;;;14.63;;
15712;SDS011;7957;51.608;6.916;2023-05-02T04:40:43;15.90;;;14.23;;
15712;SDS011;7957;51.608;6.916;2023-05-02T04:43:11;15.90;;;13.70;;
15712;SDS011;7957;51.608;6.916;2023-05-02T04:45:39;14.67;;;13.07;;
15712;SDS011;7957;51.608;6.916;2023-05-02T04:48:06;13.47;;;12.03;;
15712;SDS011;7957;51.608;6.916;2023-05-02T04:50:34;14.93;;;12.00;;
15712;SDS011;7957;51.608;6.916;2023-05-02T04:53:00;12.03;;;10.77;;
15712;SDS011;7957;51.608;6.916;2023-05-02T04:55:27;12.80;;;11.10;;
15712;SDS011;7957;51.608;6.916;2023-05-02T04:57:55;12.87;;;10.17;;
15712;SDS011;7957;51.608;6.916;2023-05-02T05:00:22;12.07;;;9.53;;
15712;SDS011;7957;51.608;6.916;2023-05-02T05:02:50;12.10;;;9.93;;
15712;SDS011;7957;51.608;6.916;2023-05-02T05:05:17;10.67;;;8.30;;
15712;SDS011;7957;51.608;6.916;2023-05-02T05:07:44;10.13;;;8.37;;
15712;SDS011;7957;51.608;6.916;2023-05-02T05:10:11;11.20;;;8.30;;
15712;SDS011;7957;51.608;6.916;2023-05-02T05:12:38;9.87;;;7.50;;
15712;SDS011;7957;51.608;6.916;2023-05-02T05:15:05;9.80;;;7.43;;
15712;SDS011;7957;51.608;6.916;2023-05-02T05:17:32;10.20;;;7.07;;
15712;SDS011;7957;51.608;6.916;2023-05-02T05:20:01;8.33;;;6.63;;
15712;SDS011;7957;51.608;6.916;2023-05-02T05:22:29;7.33;;;6.33;;
15712;SDS011;7957;51.608;6.916;2023-05-02T05:24:56;8.00;;;6.27;;
15712;SDS011;7957;51.608;6.916;2023-05-02T05:27:23;6.53;;;5.80;;
15712;SDS011;7957;51.608;6.916;2023-05-02T05:29:50;7.10;;;6.00;;
15712;SDS011;7957;51.608;6.916;2023-05-02T05:32:17;6.70;;;5.17;;
15712;SDS011;7957;51.608;6.916;2023-05-02T05:34:44;7.60;;;5.47;;
15712;SDS011;7957;51.608;6.916;2023-05-02T05:37:12;6.07;;;4.80;;
15712;SDS011;7957;51.608;6.916;2023-05-02T05:39:39;6.63;;;5.50;;
15712;SDS011;7957;51.608;6.916;2023-05-02T05:42:06;5.40;;;4.70;;
15712;SDS011;7957;51.608;6.916;2023-05-02T05:44:34;8.90;;;5.13;;
15712;SDS011;7957;51.608;6.916;2023-05-02T05:47:01;6.47;;;4.63;;
15712;SDS011;7957;51.608;6.916;2023-05-02T05:49:28;5.87;;;4.40;;
15712;SDS011;7957;51.608;6.916;2023-05-02T05:51:55;6.70;;;4.47;;
15712;SDS011;7957;51.608;6.916;2023-05-02T05:54:23;7.47;;;4.40;;
15712;SDS011;7957;51.608;6.916;2023-05-02T05:56:50;5.97;;;4.07;;
15712;SDS011;7957;51.608;6.916;2023-05-02T05:59:17;6.77;;;4.10;;
15712;SDS011;7957;51.608;6.916;2023-05-02T06:01:44;5.77;;;3.67;;
15712;SDS011;7957;51.608;6.916;2023-05-02T06:04:11;6.53;;;4.50;;
15712;SDS011;7957;51.608;6.916;2023-05-02T06:06:38;6.03;;;4.00;;
15712;SDS011;7957;51.608;6.916;2023-05-02T06:09:05;5.93;;;4.07;;
15712;SDS011;7957;51.608;6.916;2023-05-02T06:11:35;5.67;;;3.70;;
15712;SDS011;7957;51.608;6.916;2023-05-02T06:14:02;3.77;;;3.13;;
15712;SDS011;7957;51.608;6.916;2023-05-02T06:16:29;4.57;;;3.60;;
15712;SDS011;7957;51.608;6.916;2023-05-02T06:18:57;5.00;;;3.10;;
15712;SDS011;7957;51.608;6.916;2023-05-02T06:21:25;5.07;;;3.30;;
15712;SDS011;7957;51.608;6.916;2023-05-02T06:23:52;6.60;;;3.20;;
15712;SDS011;7957;51.608;6.916;2023-05-02T06:26:19;4.60;;;3.47;;
15712;SDS011;7957;51.608;6.916;2023-05-02T06:28:48;4.47;;;3.20;;
15712;SDS011;7957;51.608;6.916;2023-05-02T06:31:15;3.93;;;3.00;;
15712;SDS011;7957;51.608;6.916;2023-05-02T06:33:41;5.93;;;3.17;;
15712;SDS011;7957;51.608;6.916;2023-05-02T06:36:08;5.47;;;3.13;;
15712;SDS011;7957;51.608;6.916;2023-05-02T06:38:35;5.77;;;3.20;;
15712;SDS011;7957;51.608;6.916;2023-05-02T06:41:02;4.80;;;3.13;;
15712;SDS011;7957;51.608;6.916;2023-05-02T06:43:29;5.80;;;3.40;;
15712;SDS011;7957;51.608;6.916;2023-05-02T06:45:59;3.50;;;2.83;;
15712;SDS011;7957;51.608;6.916;2023-05-02T06:48:26;5.53;;;3.43;;
15712;SDS011;7957;51.608;6.916;2023-05-02T06:50:53;4.77;;;2.90;;
15712;SDS011;7957;51.608;6.916;2023-05-02T06:53:20;5.57;;;3.27;;
15712;SDS011;7957;51.608;6.916;2023-05-02T06:55:47;4.57;;;3.00;;
15712;SDS011;7957;51.608;6.916;2023-05-02T06:58:15;5.50;;;2.80;;
15712;SDS011;7957;51.608;6.916;2023-05-02T07:00:41;5.07;;;3.00;;
15712;SDS011;7957;51.608;6.916;2023-05-02T07:03:10;4.87;;;2.60;;
15712;SDS011;7957;51.608;6.916;2023-05-02T07:05:37;3.67;;;2.63;;
15712;SDS011;7957;51.608;6.916;2023-05-02T07:08:05;5.53;;;2.90;;
15712;SDS011;7957;51.608;6.916;2023-05-02T07:10:36;3.77;;;2.67;;
15712;SDS011;7957;51.608;6.916;2023-05-02T07:13:04;4.73;;;2.60;;
15712;SDS011;7957;51.608;6.916;2023-05-02T07:15:34;4.80;;;2.57;;
15712;SDS011;7957;51.608;6.916;2023-05-02T07:18:05;2.83;;;2.37;;
15712;SDS011;7957;51.608;6.916;2023-05-02T07:20:37;2.90;;;2.50;;
15712;SDS011;7957;51.608;6.916;2023-05-02T07:23:16;3.47;;;2.17;;
15712;SDS011;7957;51.608;6.916;2023-05-02T07:25:43;3.20;;;2.30;;
15712;SDS011;7957;51.608;6.916;2023-05-02T07:28:10;5.33;;;2.27;;
15712;SDS011;7957;51.608;6.916;2023-05-02T07:30:37;4.17;;;2.30;;
15712;SDS011;7957;51.608;6.916;2023-05-02T07:33:04;2.87;;;2.17;;
15712;SDS011;7957;51.608;6.916;2023-05-02T07:35:31;2.60;;;2.27;;
15712;SDS011;7957;51.608;6.916;2023-05-02T07:38:00;3.33;;;1.90;;
15712;SDS011;7957;51.608;6.916;2023-05-02T07:40:26;2.70;;;2.03;;
15712;SDS011;7957;51.608;6.916;2023-05-02T07:42:56;2.93;;;1.80;;
15712;SDS011;7957;51.608;6.916;2023-05-02T07:45:35;3.27;;;1.97;;
15712;SDS011;7957;51.608;6.916;2023-05-02T07:48:03;3.63;;;2.20;;
15712;SDS011;7957;51.608;6.916;2023-05-02T07:50:30;2.47;;;1.80;;
15712;SDS011;7957;51.608;6.916;2023-05-02T07:52:57;3.73;;;2.03;;
15712;SDS011;7957;51.608;6.916;2023-05-02T07:58:18;3.37;;;2.30;;
15712;SDS011;7957;51.608;6.916;2023-05-02T08:00:48;3.40;;;2.13;;
15712;SDS011;7957;51.608;6.916;2023-05-02T08:03:15;3.63;;;2.20;;
15712;SDS011;7957;51.608;6.916;2023-05-02T08:05:50;4.17;;;2.30;;
15712;SDS011;7957;51.608;6.916;2023-05-02T08:08:17;3.67;;;2.23;;
15712;SDS011;7957;51.608;6.916;2023-05-02T08:10:46;3.70;;;2.10;;
15712;SDS011;7957;51.608;6.916;2023-05-02T08:13:15;3.50;;;2.30;;
15712;SDS011;7957;51.608;6.916;2023-05-02T08:15:42;4.73;;;2.40;;
15712;SDS011;7957;51.608;6.916;2023-05-02T08:18:12;3.47;;;2.23;;
15712;SDS011;7957;51.608;6.916;2023-05-02T08:20:40;4.13;;;2.77;;
15712;SDS011;7957;51.608;6.916;2023-05-02T08:23:08;5.30;;;2.57;;
15712;SDS011;7957;51.608;6.916;2023-05-02T08:25:35;6.67;;;2.57;;
15712;SDS011;7957;51.608;6.916;2023-05-02T08:28:04;6.27;;;2.83;;
15712;SDS011;7957;51.608;6.916;2023-05-02T08:30:31;5.67;;;2.10;;
15712;SDS011;7957;51.608;6.916;2023-05-02T08:32:58;4.37;;;2.60;;
15712;SDS011;7957;51.608;6.916;2023-05-02T08:35:25;5.70;;;2.80;;
15712;SDS011;7957;51.608;6.916;2023-05-02T08:37:53;5.43;;;2.60;;
15712;SDS011;7957;51.608;6.916;2023-05-02T08:40:21;4.33;;;2.90;;
15712;SDS011;7957;51.608;6.916;2023-05-02T08:42:49;5.60;;;2.97;;
15712;SDS011;7957;51.608;6.916;2023-05-02T08:45:19;4.47;;;2.90;;
15712;SDS011;7957;51.608;6.916;2023-05-02T08:47:47;5.67;;;2.67;;
15712;SDS011;7957;51.608;6.916;2023-05-02T08:50:15;6.13;;;3.10;;
15712;SDS011;7957;51.608;6.916;2023-05-02T08:52:44;6.20;;;3.07;;
15712;SDS011;7957;51.608;6.916;2023-05-02T08:55:12;4.67;;;2.83;;
15712;SDS011;7957;51.608;6.916;2023-05-02T08:57:39;6.30;;;2.90;;
15712;SDS011;7957;51.608;6.916;2023-05-02T09:00:09;5.90;;;3.00;;
15712;SDS011;7957;51.608;6.916;2023-05-02T09:02:42;3.97;;;2.80;;
15712;SDS011;7957;51.608;6.916;2023-05-02T09:05:19;5.37;;;2.77;;
15712;SDS011;7957;51.608;6.916;2023-05-02T09:07:49;5.23;;;2.77;;
15712;SDS011;7957;51.608;6.916;2023-05-02T09:10:17;5.47;;;3.00;;
15712;SDS011;7957;51.608;6.916;2023-05-02T09:12:44;6.07;;;3.03;;
15712;SDS011;7957;51.608;6.916;2023-05-02T09:15:12;5.43;;;2.80;;
15712;SDS011;7957;51.608;6.916;2023-05-02T09:17:42;7.37;;;3.00;;
15712;SDS011;7957;51.608;6.916;2023-05-02T09:20:10;4.80;;;2.87;;
15712;SDS011;7957;51.608;6.916;2023-05-02T09:22:38;3.87;;;2.63;;
15712;SDS011;7957;51.608;6.916;2023-05-02T09:25:13;5.60;;;2.80;;
15712;SDS011;7957;51.608;6.916;2023-05-02T09:27:53;7.17;;;3.00;;
15712;SDS011;7957;51.608;6.916;2023-05-02T09:30:23;6.30;;;3.10;;
15712;SDS011;7957;51.608;6.916;2023-05-02T09:32:52;6.77;;;3.17;;
15712;SDS011;7957;51.608;6.916;2023-05-02T09:35:20;7.90;;;3.57;;
15712;SDS011;7957;51.608;6.916;2023-05-02T09:37:51;7.17;;;2.97;;
15712;SDS011;7957;51.608;6.916;2023-05-02T09:40:19;7.13;;;3.10;;
15712;SDS011;7957;51.608;6.916;2023-05-02T09:42:47;7.00;;;4.00;;
15712;SDS011;7957;51.608;6.916;2023-05-02T09:45:18;6.07;;;3.37;;
15712;SDS011;7957;51.608;6.916;2023-05-02T09:47:46;8.67;;;4.00;;
15712;SDS011;7957;51.608;6.916;2023-05-02T09:53:01;6.30;;;3.17;;
15712;SDS011;7957;51.608;6.916;2023-05-02T09:55:29;8.10;;;3.40;;
15712;SDS011;7957;51.608;6.916;2023-05-02T09:57:56;7.50;;;3.67;;
15712;SDS011;7957;51.608;6.916;2023-05-02T10:00:36;7.03;;;3.63;;
15712;SDS011;7957;51.608;6.916;2023-05-02T10:03:05;5.37;;;3.03;;
15712;SDS011;7957;51.608;6.916;2023-05-02T10:05:34;6.60;;;3.33;;
15712;SDS011;7957;51.608;6.916;2023-05-02T10:08:03;7.80;;;3.47;;
15712;SDS011;7957;51.608;6.916;2023-05-02T10:10:31;6.67;;;3.07;;
15712;SDS011;7957;51.608;6.916;2023-05-02T10:13:02;6.00;;;3.20;;
15712;SDS011;7957;51.608;6.916;2023-05-02T10:15:30;9.50;;;3.13;;
15712;SDS011;7957;51.608;6.916;2023-05-02T10:17:58;5.70;;;2.70;;
15712;SDS011;7957;51.608;6.916;2023-05-02T10:20:28;6.93;;;3.27;;
15712;SDS011;7957;51.608;6.916;2023-05-02T10:22:59;6.80;;;2.60;;
15712;SDS011;7957;51.608;6.916;2023-05-02T10:25:27;6.50;;;2.97;;
15712;SDS011;7957;51.608;6.916;2023-05-02T10:27:55;5.60;;;2.87;;
15712;SDS011;7957;51.608;6.916;2023-05-02T10:30:23;6.73;;;2.83;;
15712;SDS011;7957;51.608;6.916;2023-05-02T10:32:51;6.37;;;2.90;;
15712;SDS011;7957;51.608;6.916;2023-05-02T10:35:19;7.10;;;3.00;;
15712;SDS011;7957;51.608;6.916;2023-05-02T10:37:48;6.03;;;2.70;;
15712;SDS011;7957;51.608;6.916;2023-05-02T10:40:18;4.47;;;2.70;;
15712;SDS011;7957;51.608;6.916;2023-05-02T10:42:45;7.23;;;2.70;;
15712;SDS011;7957;51.608;6.916;2023-05-02T10:45:28;4.53;;;2.50;;
15712;SDS011;7957;51.608;6.916;2023-05-02T10:50:45;4.43;;;2.27;;
15712;SDS011;7957;51.608;6.916;2023-05-02T10:56:08;5.77;;;2.70;;
15712;SDS011;7957;51.608;6.916;2023-05-02T10:58:38;3.73;;;2.30;;
15712;SDS011;7957;51.608;6.916;2023-05-02T11:04:01;4.50;;;2.53;;
15712;SDS011;7957;51.608;6.916;2023-05-02T11:06:30;6.07;;;2.70;;
15712;SDS011;7957;51.608;6.916;2023-05-02T11:12:00;5.53;;;2.60;;
15712;SDS011;7957;51.608;6.916;2023-05-02T11:14:47;4.00;;;2.40;;
15712;SDS011;7957;51.608;6.916;2023-05-02T11:17:17;3.40;;;2.40;;
15712;SDS011;7957;51.608;6.916;2023-05-02T11:22:52;4.10;;;2.40;;
15712;SDS011;7957;51.608;6.916;2023-05-02T11:25:30;6.37;;;2.63;;
15712;SDS011;7957;51.608;6.916;2023-05-02T11:28:00;5.50;;;2.50;;
15712;SDS011;7957;51.608;6.916;2023-05-02T11:30:37;8.93;;;2.63;;
15712;SDS011;7957;51.608;6.916;2023-05-02T11:33:13;4.57;;;2.50;;
15712;SDS011;7957;51.608;6.916;2023-05-02T11:35:44;4.80;;;2.50;;
15712;SDS011;7957;51.608;6.916;2023-05-02T11:38:17;6.50;;;2.37;;
15712;SDS011;7957;51.608;6.916;2023-05-02T11:40:52;4.47;;;2.53;;
15712;SDS011;7957;51.608;6.916;2023-05-02T11:43:22;7.07;;;2.43;;
15712;SDS011;7957;51.608;6.916;2023-05-02T11:45:50;7.77;;;2.57;;
15712;SDS011;7957;51.608;6.916;2023-05-02T11:48:18;5.30;;;2.30;;
15712;SDS011;7957;51.608;6.916;2023-05-02T11:50:47;7.17;;;2.80;;
15712;SDS011;7957;51.608;6.916;2023-05-02T11:53:15;4.43;;;2.70;;
15712;SDS011;7957;51.608;6.916;2023-05-02T11:55:43;8.80;;;2.83;;
15712;SDS011;7957;51.608;6.916;2023-05-02T11:58:11;6.97;;;2.20;;
15712;SDS011;7957;51.608;6.916;2023-05-02T12:00:42;5.67;;;2.70;;
15712;SDS011;7957;51.608;6.916;2023-05-02T12:03:18;9.07;;;2.67;;
15712;SDS011;7957;51.608;6.916;2023-05-02T12:05:46;3.93;;;2.13;;
15712;SDS011;7957;51.608;6.916;2023-05-02T12:08:17;4.93;;;2.30;;
15712;SDS011;7957;51.608;6.916;2023-05-02T12:10:44;6.23;;;3.13;;
15712;SDS011;7957;51.608;6.916;2023-05-02T12:13:11;4.87;;;2.53;;
15712;SDS011;7957;51.608;6.916;2023-05-02T12:15:38;6.90;;;3.00;;
15712;SDS011;7957;51.608;6.916;2023-05-02T12:18:07;6.67;;;2.70;;
15712;SDS011;7957;51.608;6.916;2023-05-02T12:20:34;4.87;;;2.53;;
15712;SDS011;7957;51.608;6.916;2023-05-02T12:23:02;4.13;;;2.60;;
15712;SDS011;7957;51.608;6.916;2023-05-02T12:25:31;6.10;;;2.40;;
15712;SDS011;7957;51.608;6.916;2023-05-02T12:27:58;6.20;;;2.80;;
15712;SDS011;7957;51.608;6.916;2023-05-02T12:30:25;4.50;;;2.60;;
15712;SDS011;7957;51.608;6.916;2023-05-02T12:32:56;6.03;;;2.80;;
15712;SDS011;7957;51.608;6.916;2023-05-02T12:35:24;3.33;;;2.17;;
15712;SDS011;7957;51.608;6.916;2023-05-02T12:37:51;3.80;;;2.53;;
15712;SDS011;7957;51.608;6.916;2023-05-02T12:40:19;4.13;;;2.53;;
15712;SDS011;7957;51.608;6.916;2023-05-02T12:42:57;5.63;;;2.80;;
15712;SDS011;7957;51.608;6.916;2023-05-02T12:45:24;4.10;;;2.73;;
15712;SDS011;7957;51.608;6.916;2023-05-02T12:47:53;5.93;;;2.57;;
15712;SDS011;7957;51.608;6.916;2023-05-02T12:50:21;5.00;;;2.70;;
15712;SDS011;7957;51.608;6.916;2023-05-02T12:53:00;5.70;;;2.60;;
15712;SDS011;7957;51.608;6.916;2023-05-02T12:55:28;9.43;;;2.70;;
15712;SDS011;7957;51.608;6.916;2023-05-02T12:57:58;4.33;;;2.70;;
15712;SDS011;7957;51.608;6.916;2023-05-02T13:00:26;5.27;;;2.73;;
15712;SDS011;7957;51.608;6.916;2023-05-02T13:02:54;5.87;;;2.40;;
15712;SDS011;7957;51.608;6.916;2023-05-02T13:05:23;4.73;;;2.70;;
15712;SDS011;7957;51.608;6.916;2023-05-02T13:07:50;6.20;;;2.83;;
15712;SDS011;7957;51.608;6.916;2023-05-02T13:10:20;5.90;;;2.50;;
15712;SDS011;7957;51.608;6.916;2023-05-02T13:12:49;7.40;;;3.17;;
15712;SDS011;7957;51.608;6.916;2023-05-02T13:15:15;7.23;;;2.80;;
15712;SDS011;7957;51.608;6.916;2023-05-02T13:17:42;5.33;;;2.70;;
15712;SDS011;7957;51.608;6.916;2023-05-02T13:20:57;6.47;;;3.00;;
15712;SDS011;7957;51.608;6.916;2023-05-02T13:23:18;6.83;;;3.07;;
15712;SDS011;7957;51.608;6.916;2023-05-02T13:25:45;4.57;;;2.77;;
15712;SDS011;7957;51.608;6.916;2023-05-02T13:28:13;6.30;;;3.10;;
15712;SDS011;7957;51.608;6.916;2023-05-02T13:30:41;4.20;;;2.53;;
15712;SDS011;7957;51.608;6.916;2023-05-02T13:33:08;6.20;;;2.80;;
15712;SDS011;7957;51.608;6.916;2023-05-02T13:35:35;5.63;;;2.77;;
15712;SDS011;7957;51.608;6.916;2023-05-02T13:38:03;6.50;;;3.07;;
15712;SDS011;7957;51.608;6.916;2023-05-02T13:40:36;7.77;;;3.10;;
15712;SDS011;7957;51.608;6.916;2023-05-02T13:43:03;6.97;;;3.10;;
15712;SDS011;7957;51.608;6.916;2023-05-02T13:45:30;5.97;;;3.10;;
15712;SDS011;7957;51.608;6.916;2023-05-02T13:47:58;6.73;;;3.10;;
15712;SDS011;7957;51.608;6.916;2023-05-02T13:50:25;5.53;;;3.10;;
15712;SDS011;7957;51.608;6.916;2023-05-02T13:52:52;11.73;;;3.63;;
15712;SDS011;7957;51.608;6.916;2023-05-02T13:55:20;7.27;;;3.60;;
15712;SDS011;7957;51.608;6.916;2023-05-02T13:57:50;10.43;;;3.73;;
15712;SDS011;7957;51.608;6.916;2023-05-02T14:00:17;7.00;;;3.83;;
15712;SDS011;7957;51.608;6.916;2023-05-02T14:02:45;5.73;;;3.50;;
15712;SDS011;7957;51.608;6.916;2023-05-02T14:05:12;5.13;;;3.30;;
15712;SDS011;7957;51.608;6.916;2023-05-02T14:07:39;8.33;;;3.80;;
15712;SDS011;7957;51.608;6.916;2023-05-02T14:10:06;7.67;;;3.47;;
15712;SDS011;7957;51.608;6.916;2023-05-02T14:12:35;8.10;;;3.77;;
15712;SDS011;7957;51.608;6.916;2023-05-02T14:15:03;10.37;;;3.87;;
15712;SDS011;7957;51.608;6.916;2023-05-02T14:17:30;8.40;;;4.50;;
15712;SDS011;7957;51.608;6.916;2023-05-02T14:19:57;8.73;;;3.77;;
15712;SDS011;7957;51.608;6.916;2023-05-02T14:22:24;8.53;;;4.20;;
15712;SDS011;7957;51.608;6.916;2023-05-02T14:24:51;5.23;;;3.37;;
15712;SDS011;7957;51.608;6.916;2023-05-02T14:27:18;7.53;;;4.00;;
15712;SDS011;7957;51.608;6.916;2023-05-02T14:29:47;7.67;;;3.67;;
15712;SDS011;7957;51.608;6.916;2023-05-02T14:32:14;8.57;;;4.20;;
15712;SDS011;7957;51.608;6.916;2023-05-02T14:34:41;8.63;;;3.50;;
15712;SDS011;7957;51.608;6.916;2023-05-02T14:37:07;9.50;;;4.20;;
15712;SDS011;7957;51.608;6.916;2023-05-02T14:39:35;7.77;;;4.07;;
15712;SDS011;7957;51.608;6.916;2023-05-02T14:42:03;7.80;;;3.73;;
15712;SDS011;7957;51.608;6.916;2023-05-02T14:44:30;7.10;;;3.83;;
15712;SDS011;7957;51.608;6.916;2023-05-02T14:46:58;6.90;;;3.73;;
15712;SDS011;7957;51.608;6.916;2023-05-02T14:49:26;7.27;;;4.10;;
15712;SDS011;7957;51.608;6.916;2023-05-02T14:51:53;7.60;;;4.13;;
15712;SDS011;7957;51.608;6.916;2023-05-02T14:54:24;7.77;;;3.87;;
15712;SDS011;7957;51.608;6.916;2023-05-02T14:56:52;8.23;;;3.97;;
15712;SDS011;7957;51.608;6.916;2023-05-02T14:59:19;7.13;;;3.67;;
15712;SDS011;7957;51.608;6.916;2023-05-02T15:01:46;8.27;;;4.40;;
15712;SDS011;7957;51.608;6.916;2023-05-02T15:04:14;8.07;;;4.03;;
15712;SDS011;7957;51.608;6.916;2023-05-02T15:06:42;6.57;;;3.77;;
15712;SDS011;7957;51.608;6.916;2023-05-02T15:09:09;9.13;;;3.80;;
15712;SDS011;7957;51.608;6.916;2023-05-02T15:11:36;7.10;;;3.90;;
15712;SDS011;7957;51.608;6.916;2023-05-02T15:14:03;10.37;;;4.13;;
15712;SDS011;7957;51.608;6.916;2023-05-02T15:16:29;8.50;;;3.97;;
15712;SDS011;7957;51.608;6.916;2023-05-02T15:18:56;7.73;;;3.90;;
15712;SDS011;7957;51.608;6.916;2023-05-02T15:21:25;9.60;;;4.43;;
15712;SDS011;7957;51.608;6.916;2023-05-02T15:23:52;9.20;;;4.07;;